Time;durP1;ratioP1;P1;durP2;ratioP2;P2;SDS_P1;SDS_P2;PMS_P1;PMS_P2;Temp;Humidity;BMP_temperature;BMP_pressure;BME280_temperature;BME280_humidity;BME280_pressure;Samples;Min_cycle;Max_cycle;Signal;HPM_P1;HPM_P2
2023/05/18 00:01:13;;;;;;;6.00;4.57;;;;;;;8.32;65.73;97330.00;4976186;28;20090;-81
2023/05/18 00:03:41;;;;;;;7.50;4.80;;;;;;;8.34;67.96;97322.88;4975878;28;20043;-81
2023/05/18 00:06:10;;;;;;;7.63;4.65;;;;;;;8.39;69.42;97329.25;4975667;28;20507;-80
2023/05/18 00:08:38;;;;;;;7.65;5.03;;;;;;;8.42;69.10;97321.19;4975555;28;20114;-81
2023/05/18 00:11:06;;;;;;;7.25;4.88;;;;;;;8.40;67.46;97324.88;4976277;28;20050;-80
2023/05/18 00:13:34;;;;;;;17.60;11.73;;;;;;;8.34;65.84;97320.28;4975651;28;20582;-81
2023/05/18 00:16:01;;;;;;;12.00;8.23;;;;;;;8.31;67.09;97321.41;4975667;28;20046;-80
2023/05/18 00:18:29;;;;;;;14.95;9.00;;;;;;;8.28;65.52;97320.88;4975880;28;20063;-81
2023/05/18 00:20:58;;;;;;;11.40;8.10;;;;;;;8.22;66.74;97314.47;4975414;28;20447;-81
2023/05/18 00:23:29;;;;;;;13.30;7.82;;;;;;;8.25;67.69;97316.81;4975576;28;20148;-80
2023/05/18 00:25:58;;;;;;;11.30;6.93;;;;;;;8.25;66.18;97320.22;4975753;28;20400;-80
2023/05/18 00:28:26;;;;;;;10.27;7.63;;;;;;;8.22;66.41;97317.91;4975347;28;20051;-80
2023/05/18 00:30:54;;;;;;;9.38;6.05;;;;;;;8.24;68.23;97316.00;4975354;28;20105;-80
2023/05/18 00:33:22;;;;;;;9.68;6.72;;;;;;;8.31;69.16;97312.75;4974953;28;20101;-80
2023/05/18 00:35:50;;;;;;;11.57;6.45;;;;;;;8.34;70.46;97315.91;4975688;28;20047;-81
2023/05/18 00:38:17;;;;;;;16.98;9.35;;;;;;;8.36;67.97;97310.56;4976619;28;20133;-81
2023/05/18 00:40:46;;;;;;;11.00;7.55;;;;;;;8.30;67.80;97317.16;4975539;28;20102;-80
2023/05/18 00:43:14;;;;;;;7.47;5.38;;;;;;;8.27;68.42;97311.47;4975964;28;20416;-81
2023/05/18 00:45:42;;;;;;;6.05;5.22;;;;;;;8.26;69.64;97318.41;4975067;28;20054;-80
2023/05/18 00:48:09;;;;;;;7.65;5.10;;;;;;;8.25;70.24;97307.22;4976551;28;20098;-81
2023/05/18 00:50:37;;;;;;;7.55;5.70;;;;;;;8.26;71.25;97308.03;4993857;28;20074;-80
2023/05/18 00:53:05;;;;;;;10.35;4.70;;;;;;;8.30;71.48;97314.56;4995731;28;20151;-81
2023/05/18 00:55:33;;;;;;;8.32;4.15;;;;;;;8.23;68.31;97306.53;4980615;28;20438;-80
2023/05/18 00:58:04;;;;;;;6.43;3.95;;;;;;;8.12;66.86;97308.56;4975249;28;20061;-80
2023/05/18 01:00:32;;;;;;;5.03;3.85;;;;;;;8.08;69.00;97302.84;4974971;28;20129;-80
2023/05/18 01:03:00;;;;;;;5.35;3.85;;;;;;;8.10;69.44;97307.91;4975080;28;20051;-80
2023/05/18 01:05:28;;;;;;;7.55;4.30;;;;;;;8.07;68.08;97296.03;4974834;28;20053;-80
2023/05/18 01:07:56;;;;;;;8.00;4.78;;;;;;;7.98;66.35;97296.88;4974712;28;20074;-80
2023/05/18 01:10:24;;;;;;;5.78;4.10;;;;;;;7.86;66.40;97298.09;4974958;28;20400;-80
2023/05/18 01:12:56;;;;;;;6.45;4.03;;;;;;;7.72;65.22;97297.63;4974468;28;20500;-80
2023/05/18 01:15:31;;;;;;;4.28;3.60;;;;;;;7.64;67.30;97297.53;4974931;28;20078;-80
2023/05/18 01:18:04;;;;;;;7.93;4.03;;;;;;;7.59;65.30;97290.19;4974769;28;20050;-80
2023/05/18 01:20:37;;;;;;;8.57;4.45;;;;;;;7.55;68.01;97294.03;4974768;28;20085;-80
2023/05/18 01:23:29;;;;;;;6.07;3.80;;;;;;;7.65;70.31;97291.38;4974777;28;20055;-80
2023/05/18 01:26:14;;;;;;;4.53;3.17;;;;;;;7.73;70.61;97296.66;4974505;28;20050;-80
2023/05/18 01:28:45;;;;;;;6.63;4.28;;;;;;;7.76;70.34;97291.19;4974300;28;20078;-80
2023/05/18 01:31:14;;;;;;;6.97;4.32;;;;;;;7.80;69.85;97287.31;4974262;28;20109;-80
2023/05/18 01:33:42;;;;;;;6.03;4.63;;;;;;;7.78;67.14;97286.66;4974185;28;20051;-80
2023/05/18 01:36:10;;;;;;;5.10;3.95;;;;;;;7.70;68.54;97283.16;4974335;28;20051;-80
2023/05/18 01:38:39;;;;;;;6.18;4.65;;;;;;;7.66;68.19;97287.81;4974471;28;20050;-79
2023/05/18 01:41:17;;;;;;;5.65;3.47;;;;;;;7.64;67.76;97287.97;4974188;28;20051;-80
2023/05/18 01:43:52;;;;;;;5.78;4.45;;;;;;;7.60;67.15;97288.41;4974149;28;20117;-80
2023/05/18 01:46:31;;;;;;;9.18;4.32;;;;;;;7.52;65.32;97289.13;4973923;28;20105;-80
2023/05/18 01:49:06;;;;;;;7.70;5.30;;;;;;;7.45;65.50;97285.47;4974467;28;20043;-80
2023/05/18 01:51:41;;;;;;;7.70;5.45;;;;;;;7.38;64.97;97285.22;4974490;28;20125;-80
2023/05/18 01:54:11;;;;;;;7.40;4.65;;;;;;;7.32;65.60;97285.81;4973650;28;20055;-79
2023/05/18 01:56:40;;;;;;;6.88;4.05;;;;;;;7.32;65.62;97274.63;4974221;28;20042;-80
2023/05/18 01:59:08;;;;;;;5.75;4.22;;;;;;;7.28;65.55;97279.28;4973531;28;20529;-80
2023/05/18 02:01:35;;;;;;;6.32;4.35;;;;;;;7.22;65.46;97270.28;4974016;28;20459;-79
2023/05/18 02:04:07;;;;;;;8.43;4.50;;;;;;;7.18;65.34;97275.91;4973371;28;20046;-79
2023/05/18 02:06:36;;;;;;;9.00;4.82;;;;;;;7.12;65.23;97273.91;4973788;28;20061;-79
2023/05/18 02:09:04;;;;;;;7.03;4.30;;;;;;;7.08;65.37;97269.94;4973654;28;20454;-79
2023/05/18 02:11:32;;;;;;;6.35;4.53;;;;;;;7.04;65.34;97271.19;4974102;28;20062;-80
2023/05/18 02:14:01;;;;;;;6.85;5.10;;;;;;;6.97;65.62;97263.16;4973365;28;20082;-79
2023/05/18 02:16:28;;;;;;;6.00;4.75;;;;;;;6.92;67.18;97258.41;4973910;28;20058;-80
2023/05/18 02:18:56;;;;;;;10.38;5.10;;;;;;;6.95;67.66;97260.72;4973686;28;20114;-79
2023/05/18 02:21:24;;;;;;;6.55;4.93;;;;;;;7.04;69.22;97260.81;4973652;28;20054;-79
2023/05/18 02:23:52;;;;;;;4.70;3.80;;;;;;;7.12;69.65;97260.91;4973354;28;20082;-79
2023/05/18 02:26:20;;;;;;;9.07;5.05;;;;;;;7.14;67.66;97261.59;4974067;28;20425;-79
2023/05/18 02:28:47;;;;;;;8.15;4.03;;;;;;;7.09;66.83;97262.03;4973959;28;20104;-79
2023/05/18 02:31:16;;;;;;;8.80;4.70;;;;;;;7.07;66.29;97255.34;4974309;28;20050;-80
2023/05/18 02:33:44;;;;;;;6.95;4.80;;;;;;;7.08;66.70;97259.56;4973708;28;20054;-80
2023/05/18 02:36:13;;;;;;;6.18;4.25;;;;;;;7.14;69.34;97259.00;4973260;28;20495;-79
2023/05/18 02:38:43;;;;;;;7.65;4.45;;;;;;;7.17;68.46;97263.88;4973722;28;20051;-79
2023/05/18 02:41:11;;;;;;;9.52;5.60;;;;;;;7.14;67.90;97261.59;4973542;28;20102;-80
2023/05/18 02:43:39;;;;;;;5.50;4.22;;;;;;;7.14;68.83;97249.44;4973330;28;20082;-80
2023/05/18 02:46:06;;;;;;;7.63;4.78;;;;;;;7.17;69.42;97251.75;4973476;28;20474;-79
2023/05/18 02:48:35;;;;;;;8.55;5.22;;;;;;;7.19;68.55;97249.00;4973405;28;20050;-79
2023/05/18 02:51:03;;;;;;;8.00;4.47;;;;;;;7.18;67.50;97248.19;4973456;28;20051;-79
2023/05/18 02:53:31;;;;;;;7.78;5.07;;;;;;;7.20;68.59;97250.66;4973755;28;20062;-79
2023/05/18 02:56:02;;;;;;;5.57;4.15;;;;;;;7.24;69.95;97241.63;4975719;28;20055;-79
2023/05/18 02:58:29;;;;;;;9.30;4.93;;;;;;;7.25;67.84;97240.63;4979940;28;20081;-79
2023/05/18 03:00:58;;;;;;;10.48;5.50;;;;;;;7.20;67.55;97243.66;4978398;28;20074;-80
2023/05/18 03:03:26;;;;;;;6.45;5.05;;;;;;;7.16;67.53;97238.91;4973709;28;20051;-79
2023/05/18 03:05:55;;;;;;;8.57;6.00;;;;;;;7.13;66.53;97244.41;4973719;28;20062;-79
2023/05/18 03:08:25;;;;;;;7.57;4.47;;;;;;;7.13;68.34;97254.78;4976927;28;20050;-79
2023/05/18 03:10:53;;;;;;;7.43;4.75;;;;;;;7.10;67.24;97240.31;4976875;28;20499;-79
2023/05/18 03:13:21;;;;;;;9.80;5.38;;;;;;;7.05;66.71;97239.94;4976650;28;20075;-79
2023/05/18 03:15:49;;;;;;;9.45;5.22;;;;;;;6.99;66.69;97238.72;4976546;28;20113;-79
2023/05/18 03:18:17;;;;;;;7.65;5.22;;;;;;;6.96;66.66;97239.00;4977097;28;20050;-79
2023/05/18 03:20:45;;;;;;;9.35;5.35;;;;;;;6.96;67.67;97239.00;4976796;28;20097;-79
2023/05/18 03:23:14;;;;;;;7.10;5.10;;;;;;;6.99;70.01;97243.91;4976580;28;20093;-79
2023/05/18 03:25:42;;;;;;;8.00;5.38;;;;;;;7.07;70.65;97244.97;4976179;28;20054;-79
2023/05/18 03:28:09;;;;;;;8.48;5.15;;;;;;;7.11;69.18;97247.13;4976861;28;20098;-79
2023/05/18 03:30:37;;;;;;;9.57;4.90;;;;;;;7.12;69.83;97242.75;4976484;28;20090;-79
2023/05/18 03:33:05;;;;;;;10.88;5.35;;;;;;;7.13;70.36;97241.81;4976306;28;20047;-79
2023/05/18 03:35:32;;;;;;;7.25;4.88;;;;;;;7.18;70.82;97237.00;4973782;28;20062;-79
2023/05/18 03:38:00;;;;;;;8.23;4.93;;;;;;;7.21;70.34;97244.47;4970416;28;20047;-79
2023/05/18 03:40:29;;;;;;;6.97;4.65;;;;;;;7.24;71.82;97241.63;4976296;28;20082;-79
2023/05/18 03:42:57;;;;;;;8.07;4.97;;;;;;;7.28;70.05;97253.34;4975722;28;20106;-79
2023/05/18 03:45:24;;;;;;;7.28;5.45;;;;;;;7.22;67.57;97248.72;4973700;28;20078;-79
2023/05/18 03:47:52;;;;;;;7.82;5.13;;;;;;;7.10;67.04;97244.69;4969285;28;20736;-79
2023/05/18 03:50:20;;;;;;;9.07;5.50;;;;;;;7.07;67.55;97252.75;4976220;28;20136;-78
2023/05/18 03:52:48;;;;;;;8.20;5.05;;;;;;;7.08;68.75;97251.78;4975290;28;20586;-79
2023/05/18 03:55:16;;;;;;;6.25;4.75;;;;;;;7.05;66.91;97244.31;4974485;28;20089;-79
2023/05/18 03:57:45;;;;;;;7.70;4.97;;;;;;;7.05;69.31;97252.09;4966338;28;20109;-79
2023/05/18 04:00:14;;;;;;;6.35;4.75;;;;;;;7.00;67.27;97244.75;4976163;28;20115;-78
2023/05/18 04:02:42;;;;;;;6.63;4.68;;;;;;;6.97;67.96;97250.19;4972036;29;20063;-79
2023/05/18 04:05:09;;;;;;;8.40;4.63;;;;;;;7.00;68.51;97253.31;4978732;28;20039;-78
2023/05/18 04:07:42;;;;;;;6.82;5.30;;;;;;;7.01;68.35;97254.94;4968157;28;20082;-79
2023/05/18 04:10:11;;;;;;;7.72;4.93;;;;;;;6.98;68.82;97252.66;4957638;29;20082;-79
2023/05/18 04:12:38;;;;;;;7.88;5.47;;;;;;;7.00;70.18;97255.94;4957686;29;20052;-78
2023/05/18 04:15:09;;;;;;;9.38;4.90;;;;;;;7.00;67.83;97249.94;4957262;28;20055;-78
2023/05/18 04:17:38;;;;;;;7.43;4.72;;;;;;;6.94;67.16;97251.31;4956518;28;20067;-78
2023/05/18 04:20:12;;;;;;;7.35;4.95;;;;;;;6.90;66.90;97255.13;4956573;29;20051;-78
2023/05/18 04:22:45;;;;;;;7.55;4.78;;;;;;;6.87;66.47;97258.03;4962290;28;20061;-78
2023/05/18 04:25:13;;;;;;;5.45;4.93;;;;;;;6.88;68.42;97258.84;4975462;28;20050;-78
2023/05/18 04:27:42;;;;;;;7.68;4.88;;;;;;;6.96;69.73;97264.13;4967130;28;20431;-78
2023/05/18 04:30:12;;;;;;;8.50;5.13;;;;;;;7.06;70.84;97259.69;4956305;28;20047;-78
2023/05/18 04:32:41;;;;;;;8.68;5.32;;;;;;;7.06;68.96;97262.31;4975192;28;20065;-78
2023/05/18 04:35:10;;;;;;;8.18;5.00;;;;;;;7.09;71.09;97263.81;4973568;28;20063;-78
2023/05/18 04:37:40;;;;;;;6.88;5.20;;;;;;;7.12;69.19;97263.50;4955915;28;20055;-79
2023/05/18 04:40:12;;;;;;;8.40;5.10;;;;;;;7.08;68.57;97272.53;4956023;29;20051;-78
2023/05/18 04:42:43;;;;;;;7.25;4.88;;;;;;;7.09;68.36;97276.78;4955519;28;20053;-78
2023/05/18 04:45:16;;;;;;;7.03;4.90;;;;;;;7.10;68.77;97271.44;4956293;28;20055;-78
2023/05/18 04:47:45;;;;;;;7.32;4.32;;;;;;;7.16;70.76;97270.06;4964768;28;20133;-78
2023/05/18 04:50:14;;;;;;;7.22;4.78;;;;;;;7.21;69.48;97273.03;4975046;28;20579;-78
2023/05/18 04:52:47;;;;;;;9.55;5.43;;;;;;;7.21;68.95;97273.03;4974856;28;20050;-79
2023/05/18 04:55:21;;;;;;;8.43;5.03;;;;;;;7.22;68.72;97282.47;4974687;28;20146;-78
2023/05/18 04:57:49;;;;;;;9.00;5.43;;;;;;;7.24;68.32;97283.13;4974370;28;20146;-78
2023/05/18 05:00:19;;;;;;;10.15;5.00;;;;;;;7.26;68.37;97278.63;4973013;28;20046;-78
2023/05/18 05:02:46;;;;;;;8.35;4.80;;;;;;;7.34;69.81;97283.88;4966407;28;20050;-78
2023/05/18 05:05:14;;;;;;;6.05;4.75;;;;;;;7.43;70.76;97282.19;4974544;28;20047;-78
2023/05/18 05:07:42;;;;;;;7.60;5.10;;;;;;;7.47;69.33;97285.34;4974763;28;20105;-78
2023/05/18 05:10:10;;;;;;;10.98;5.03;;;;;;;7.50;69.12;97272.91;4962419;28;20110;-78
2023/05/18 05:12:37;;;;;;;7.82;4.82;;;;;;;7.55;69.20;97275.03;4954874;29;20131;-79
2023/05/18 05:15:06;;;;;;;7.45;4.28;;;;;;;7.58;69.06;97280.75;4957562;28;20509;-79
2023/05/18 05:17:35;;;;;;;6.75;4.05;;;;;;;7.66;69.96;97277.44;4956501;28;20058;-79
2023/05/18 05:20:04;;;;;;;6.80;4.35;;;;;;;7.72;69.50;97276.84;4962533;28;20110;-79
2023/05/18 05:22:31;;;;;;;7.80;4.85;;;;;;;7.78;69.29;97278.88;4961134;29;20055;-78
2023/05/18 05:25:47;;;;;;;5.45;4.35;;;;;;;7.87;70.23;97277.16;4980074;23;20051;-83
2023/05/18 05:43:55;;;;;;;5.70;3.55;;;;;;;8.32;72.82;97283.22;4976057;28;20079;-81
2023/05/18 06:14:20;;;;;;;7.35;2.60;;;;;;;8.83;62.07;97281.63;4358924;23;20055;-80
2023/05/18 06:16:47;;;;;;;7.22;2.58;;;;;;;8.93;61.91;97284.97;4987792;28;20047;-80
2023/05/18 06:19:15;;;;;;;14.73;2.90;;;;;;;9.01;61.09;97282.41;4973521;28;20091;-79
2023/05/18 06:21:44;;;;;;;10.02;3.38;;;;;;;9.10;60.36;97287.66;4982551;28;20078;-80
2023/05/18 06:24:14;;;;;;;6.50;2.53;;;;;;;9.16;60.50;97277.44;4986539;28;20050;-80
2023/05/18 06:26:44;;;;;;;7.38;2.33;;;;;;;9.24;61.44;97284.47;4985124;28;20055;-79
2023/05/18 06:29:12;;;;;;;7.93;2.42;;;;;;;9.33;59.92;97285.31;4964012;28;20110;-80
2023/05/18 06:35:44;;;;;;;10.68;2.58;;;;;;;9.50;59.33;97273.97;4966804;29;20075;-81
2023/05/18 06:38:12;;;;;;;6.07;2.28;;;;;;;9.59;59.06;97282.63;4952063;29;20245;-80
2023/05/18 06:40:50;;;;;;;6.35;2.22;;;;;;;9.68;58.85;97285.09;4989343;28;20047;-81
2023/05/18 06:43:35;;;;;;;7.70;2.60;;;;;;;9.79;58.32;97281.38;4998224;28;20053;-80
2023/05/18 07:04:07;;;;;;;5.97;2.47;;;;;;;10.53;57.11;97284.06;5000857;28;20062;-81
2023/05/18 07:06:36;;;;;;;6.88;2.60;;;;;;;10.64;56.66;97286.31;5011173;28;20050;-80
2023/05/18 07:09:04;;;;;;;7.55;3.70;;;;;;;10.71;56.62;97284.69;4997424;28;20042;-80
2023/05/18 07:11:33;;;;;;;5.82;2.83;;;;;;;10.82;56.37;97287.94;4987353;28;20047;-80
2023/05/18 07:14:03;;;;;;;6.88;2.60;;;;;;;10.93;57.05;97288.41;4985407;28;20160;-82
2023/05/18 07:16:39;;;;;;;9.98;2.58;;;;;;;11.02;55.76;97286.59;4987898;28;20575;-80
2023/05/18 07:23:03;;;;;;;6.80;2.70;;;;;;;11.29;54.54;97297.59;4999641;28;20054;-80
2023/05/18 07:29:32;;;;;;;4.78;2.35;;;;;;;11.51;55.09;97296.03;5000420;28;20075;-80
2023/05/18 07:39:00;;;;;;;7.28;2.60;;;;;;;11.91;54.15;97291.59;4957463;28;20079;-85
2023/05/18 07:45:25;;;;;;;7.00;2.67;;;;;;;12.13;52.56;97296.06;4976861;29;20057;-80
2023/05/18 07:52:47;;;;;;;7.80;2.80;;;;;;;12.36;51.83;97293.41;4968058;28;20054;-80
2023/05/18 07:55:32;;;;;;;5.68;2.60;;;;;;;12.45;52.27;97288.13;4985240;28;20074;-80
2023/05/18 07:58:24;;;;;;;9.35;3.13;;;;;;;12.54;51.43;97287.84;5019223;28;20079;-80
2023/05/18 08:01:01;;;;;;;6.82;2.58;;;;;;;12.64;52.06;97292.03;5010129;28;20051;-80
2023/05/18 08:03:36;;;;;;;9.65;3.25;;;;;;;12.72;51.79;97289.34;4997299;28;20109;-78
2023/05/18 08:06:11;;;;;;;6.68;2.70;;;;;;;12.84;52.03;97277.44;4998285;28;20055;-80
2023/05/18 08:08:40;;;;;;;8.10;3.17;;;;;;;12.95;51.60;97278.81;4998600;28;20034;-80
2023/05/18 08:11:13;;;;;;;7.95;3.05;;;;;;;13.08;50.97;97272.94;4996576;28;20051;-80
2023/05/18 08:13:42;;;;;;;8.23;3.58;;;;;;;13.17;50.32;97277.09;4997632;28;20058;-80
2023/05/18 08:16:14;;;;;;;7.65;3.00;;;;;;;13.26;49.35;97269.97;5005894;28;20054;-83
2023/05/18 08:18:51;;;;;;;7.20;3.22;;;;;;;13.35;49.94;97280.19;5017939;28;20109;-83
2023/05/18 08:21:45;;;;;;;8.07;2.75;;;;;;;13.43;49.75;97275.84;5017899;28;20030;-83
2023/05/18 08:24:23;;;;;;;7.93;3.15;;;;;;;13.50;49.98;97281.97;5014010;28;20050;-84
2023/05/18 08:27:13;;;;;;;9.93;3.28;;;;;;;13.57;48.96;97267.94;5014134;28;20081;-81
2023/05/18 08:29:57;;;;;;;8.57;3.15;;;;;;;13.66;48.09;97270.47;4995122;28;20051;-80
2023/05/18 08:32:41;;;;;;;7.75;3.20;;;;;;;13.72;48.82;97269.72;4993955;28;20074;-81
2023/05/18 08:35:10;;;;;;;5.95;2.92;;;;;;;13.82;49.05;97267.63;4971794;28;20065;-77
2023/05/18 08:56:45;;;;;;;8.80;3.28;;;;;;;14.48;47.85;97270.03;4981157;28;20055;-79
2023/05/18 09:00:19;;;;;;;8.38;3.00;;;;;;;14.63;45.68;97262.13;4961170;28;20056;-81
2023/05/18 09:02:50;;;;;;;8.77;3.13;;;;;;;14.67;46.56;97258.13;4962163;28;20135;-75
2023/05/18 09:05:28;;;;;;;5.97;2.40;;;;;;;14.71;45.24;97259.31;4979933;28;20094;-80
2023/05/18 09:11:44;;;;;;;6.05;3.00;;;;;;;14.83;45.72;97257.00;4993962;28;20134;-80
2023/05/18 09:18:43;;;;;;;5.97;3.20;;;;;;;15.06;44.25;97256.72;4977671;28;20102;-80
2023/05/18 09:25:19;;;;;;;8.55;2.78;;;;;;;15.23;43.89;97265.91;4983502;28;20086;-79
2023/05/18 09:28:02;;;;;;;5.95;2.53;;;;;;;15.25;43.72;97266.53;4976973;28;20110;-81
2023/05/18 09:30:48;;;;;;;6.28;3.03;;;;;;;15.30;43.53;97247.53;4974865;29;20106;-80
2023/05/18 09:33:20;;;;;;;7.03;2.60;;;;;;;15.31;43.41;97253.63;4973313;28;20567;-80
2023/05/18 09:35:50;;;;;;;5.20;2.30;;;;;;;15.32;43.65;97249.97;4973134;29;20051;-81
2023/05/18 09:38:22;;;;;;;8.82;2.45;;;;;;;15.36;43.17;97251.22;4972821;28;20071;-80
2023/05/18 09:40:52;;;;;;;4.28;2.22;;;;;;;15.40;43.43;97253.25;4987219;28;20058;-81
2023/05/18 09:43:21;;;;;;;7.20;2.75;;;;;;;15.40;43.59;97249.81;4993460;28;20114;-80
2023/05/18 09:45:58;;;;;;;5.93;2.40;;;;;;;15.42;43.10;97253.06;4995288;28;20077;-81
2023/05/18 09:48:32;;;;;;;4.47;2.35;;;;;;;15.43;43.36;97252.03;4987696;28;20196;-81
2023/05/18 09:51:16;;;;;;;7.45;2.78;;;;;;;15.47;42.54;97255.91;4976465;28;20046;-81
2023/05/18 09:54:03;;;;;;;6.85;2.67;;;;;;;15.49;42.29;97253.88;4975378;28;20039;-80
2023/05/18 09:56:38;;;;;;;5.22;2.70;;;;;;;15.47;42.42;97239.31;4990575;28;20047;-80
2023/05/18 09:59:21;;;;;;;4.82;2.50;;;;;;;15.48;43.06;97241.75;4993755;28;20053;-81
2023/05/18 10:02:11;;;;;;;11.60;2.88;;;;;;;15.54;42.80;97243.59;4996981;28;20063;-81
2023/05/18 10:04:52;;;;;;;5.38;2.63;;;;;;;15.62;42.99;97235.53;4997558;28;20054;-80
2023/05/18 10:07:23;;;;;;;5.80;3.00;;;;;;;15.70;43.22;97236.34;4998142;28;20106;-81
2023/05/18 10:10:02;;;;;;;7.15;2.60;;;;;;;15.82;42.25;97245.31;4990003;28;20047;-80
2023/05/18 10:12:32;;;;;;;7.70;2.65;;;;;;;15.93;43.24;97236.84;4996722;28;20061;-81
2023/05/18 10:15:05;;;;;;;8.77;2.70;;;;;;;16.01;42.67;97235.84;4996890;28;20038;-82
2023/05/18 10:17:36;;;;;;;9.63;4.28;;;;;;;16.10;42.92;97239.09;4983718;28;20043;-81
2023/05/18 10:20:09;;;;;;;6.85;2.97;;;;;;;16.17;42.46;97232.00;4982401;28;20079;-80
2023/05/18 10:22:40;;;;;;;6.38;2.83;;;;;;;16.24;42.56;97238.09;4975564;28;20050;-81
2023/05/18 10:25:12;;;;;;;5.97;2.58;;;;;;;16.31;43.18;97231.03;4994213;28;20106;-80
2023/05/18 10:30:37;;;;;;;4.72;2.17;;;;;;;16.50;41.32;97228.56;5291682;23;20065;-79
2023/05/18 10:33:07;;;;;;;9.90;3.13;;;;;;;16.53;41.49;97225.53;4985762;28;20451;-79
2023/05/18 10:35:51;;;;;;;5.53;2.17;;;;;;;16.54;41.74;97229.78;4979735;28;20050;-79
2023/05/18 10:38:21;;;;;;;5.05;2.72;;;;;;;16.53;40.90;97223.72;4979862;28;20078;-79
2023/05/18 10:40:50;;;;;;;4.25;2.13;;;;;;;16.55;41.76;97224.31;4963509;28;20102;-79
2023/05/18 10:43:20;;;;;;;5.93;2.17;;;;;;;16.63;42.79;97218.03;4980486;28;20047;-79
2023/05/18 10:45:53;;;;;;;6.10;2.35;;;;;;;16.74;41.62;97216.59;4952415;28;20565;-79
2023/05/18 10:48:23;;;;;;;6.03;2.35;;;;;;;16.82;40.69;97222.47;4978976;28;20682;-79
2023/05/18 10:50:52;;;;;;;9.45;3.05;;;;;;;16.85;40.80;97224.69;4978933;28;20062;-79
2023/05/18 10:53:21;;;;;;;7.72;3.78;;;;;;;16.84;39.61;97207.28;4979535;28;20047;-79
2023/05/18 10:55:50;;;;;;;8.27;3.00;;;;;;;16.82;39.32;97214.56;4979129;28;20047;-79
2023/05/18 10:58:20;;;;;;;8.13;2.63;;;;;;;16.85;39.81;97216.78;4982917;28;20055;-79
2023/05/18 11:00:50;;;;;;;5.90;2.25;;;;;;;16.92;40.01;97208.06;4972645;28;20067;-79
2023/05/18 11:03:21;;;;;;;6.15;2.30;;;;;;;16.98;39.04;97208.03;4982766;28;20055;-79
2023/05/18 11:05:50;;;;;;;4.03;2.05;;;;;;;17.06;39.79;97209.66;4981146;28;20061;-79
2023/05/18 11:08:27;;;;;;;8.63;2.50;;;;;;;17.11;39.15;97199.28;4973417;28;20055;-79
2023/05/18 11:11:03;;;;;;;5.25;2.08;;;;;;;17.15;40.42;97208.41;4961786;28;20078;-80
2023/05/18 11:13:32;;;;;;;6.80;2.15;;;;;;;17.18;38.73;97205.34;4962387;28;20070;-80
2023/05/18 11:16:07;;;;;;;6.82;2.88;;;;;;;17.15;39.04;97199.69;4974522;28;20070;-80
2023/05/18 11:18:43;;;;;;;6.30;2.30;;;;;;;17.17;39.29;97195.81;4989423;28;20491;-79
2023/05/18 11:21:34;;;;;;;6.82;2.08;;;;;;;17.19;37.72;97193.78;4948512;28;20067;-80
2023/05/18 11:24:18;;;;;;;8.23;2.35;;;;;;;17.23;38.40;97199.44;4971572;28;20082;-80
2023/05/18 11:26:48;;;;;;;7.75;2.80;;;;;;;17.23;38.29;97213.44;4970985;28;20055;-79
2023/05/18 11:29:18;;;;;;;8.40;2.08;;;;;;;17.20;39.14;97195.38;4967941;28;20129;-74
2023/05/18 11:31:46;;;;;;;8.95;3.35;;;;;;;17.25;41.70;97195.59;4957192;28;20468;-74
2023/05/18 11:34:36;;;;;;;7.40;2.30;;;;;;;17.36;40.66;97203.84;4975994;28;20074;-73
2023/05/18 11:37:08;;;;;;;5.68;2.20;;;;;;;17.41;39.66;97196.94;4983072;28;20307;-80
2023/05/18 11:39:37;;;;;;;6.15;2.28;;;;;;;17.48;38.79;97197.69;4991828;28;20081;-79
2023/05/18 11:42:19;;;;;;;5.32;2.10;;;;;;;17.54;38.49;97200.53;4993822;28;20049;-80
2023/05/18 11:44:52;;;;;;;7.68;2.45;;;;;;;17.53;37.52;97198.91;4994221;28;20035;-80
2023/05/18 11:47:21;;;;;;;6.88;2.00;;;;;;;17.52;37.94;97203.38;4975908;28;20059;-80
2023/05/18 11:49:51;;;;;;;9.35;3.30;;;;;;;17.52;37.78;97213.91;4975782;28;20074;-79
2023/05/18 11:52:21;;;;;;;6.38;2.03;;;;;;;17.54;38.14;97201.34;4971956;28;20051;-80
2023/05/18 11:54:51;;;;;;;15.00;2.53;;;;;;;17.55;37.81;97195.03;4975195;28;20054;-79
2023/05/18 11:57:23;;;;;;;5.00;2.03;;;;;;;17.55;37.37;97204.78;4988078;28;20061;-80
2023/05/18 11:59:55;;;;;;;4.03;2.13;;;;;;;17.49;36.87;97204.59;4979279;28;20055;-80
2023/05/18 12:02:25;;;;;;;4.03;1.98;;;;;;;17.42;37.09;97203.00;4970350;28;20281;-80
2023/05/18 12:04:59;;;;;;;7.70;3.35;;;;;;;17.36;37.40;97195.94;4981357;28;20077;-80
2023/05/18 12:07:29;;;;;;;3.85;2.25;;;;;;;17.35;38.10;97192.50;4990666;28;20053;-80
2023/05/18 12:09:58;;;;;;;9.48;3.33;;;;;;;17.39;37.75;97195.53;4982719;28;20059;-79
2023/05/18 12:12:28;;;;;;;7.38;2.08;;;;;;;17.41;38.04;97190.84;4986247;28;20054;-79
2023/05/18 12:14:58;;;;;;;8.45;2.60;;;;;;;17.48;37.63;97188.97;4990986;28;20138;-80
2023/05/18 12:17:39;;;;;;;3.08;1.95;;;;;;;17.54;37.38;97185.50;4974653;28;20099;-79
2023/05/18 12:20:11;;;;;;;6.20;2.33;;;;;;;17.53;37.24;97188.34;4975085;28;20495;-80
2023/05/18 12:22:41;;;;;;;5.00;1.85;;;;;;;17.49;37.27;97187.94;4980498;28;20054;-80
2023/05/18 12:25:20;;;;;;;6.57;1.65;;;;;;;17.48;38.72;97186.34;4993387;28;20051;-80
2023/05/18 12:27:54;;;;;;;7.05;2.13;;;;;;;17.54;38.03;97177.59;4993526;28;20098;-79
2023/05/18 12:30:33;;;;;;;3.85;1.58;;;;;;;17.61;37.77;97188.09;4991231;28;20047;-80
2023/05/18 12:33:06;;;;;;;5.82;1.95;;;;;;;17.63;37.21;97176.31;4983500;28;20475;-80
2023/05/18 12:35:37;;;;;;;7.80;2.30;;;;;;;17.66;38.15;97189.06;4977284;28;20051;-80
2023/05/18 12:38:07;;;;;;;9.82;2.00;;;;;;;17.74;37.43;97179.31;4974836;28;20039;-80
2023/05/18 12:40:43;;;;;;;4.53;1.83;;;;;;;17.76;37.49;97174.63;4992795;28;20069;-80
2023/05/18 12:43:13;;;;;;;5.30;2.17;;;;;;;17.73;37.21;97180.31;4995594;28;20125;-80
2023/05/18 12:45:45;;;;;;;7.10;2.05;;;;;;;17.69;37.44;97175.47;4995187;28;20502;-80
2023/05/18 12:48:15;;;;;;;5.03;1.80;;;;;;;17.64;37.24;97177.13;4993860;28;20061;-80
2023/05/18 12:50:50;;;;;;;4.95;2.15;;;;;;;17.58;37.64;97176.16;4994250;28;20269;-80
2023/05/18 12:53:23;;;;;;;8.30;2.13;;;;;;;17.59;37.88;97179.59;4982497;28;20055;-80
2023/05/18 12:56:00;;;;;;;7.63;2.40;;;;;;;17.62;37.59;97185.25;4974769;28;20134;-80
2023/05/18 12:58:31;;;;;;;5.10;2.10;;;;;;;17.62;37.15;97184.44;4975177;28;20107;-79
2023/05/18 13:01:08;;;;;;;3.35;1.65;;;;;;;17.63;37.14;97168.41;4982576;28;20082;-80
2023/05/18 13:03:40;;;;;;;6.85;2.28;;;;;;;17.65;38.01;97161.09;4972960;28;20061;-80
2023/05/18 13:06:12;;;;;;;7.43;2.08;;;;;;;17.67;37.13;97169.59;4972745;28;20086;-80
2023/05/18 13:08:44;;;;;;;;;;;;;;;17.71;37.68;97175.28;4972434;29;20071;-80
2023/05/18 13:11:15;;;;;;;4.90;1.90;;;;;;;17.73;37.73;97161.84;4972843;28;19965;-80
2023/05/18 13:14:13;;;;;;;5.72;2.33;;;;;;;17.76;37.92;97169.34;4973215;28;20075;-80
2023/05/18 13:16:45;;;;;;;6.50;1.88;;;;;;;17.80;37.23;97167.88;4987317;28;20047;-82
2023/05/18 13:19:18;;;;;;;4.53;2.15;;;;;;;17.83;36.80;97173.56;4974838;28;20055;-82
2023/05/18 13:22:00;;;;;;;2.05;1.42;;;;;;;17.83;36.75;97162.22;4973635;28;20510;-82
2023/05/18 13:24:28;;;;;;;6.25;2.47;;;;;;;17.83;37.46;97167.50;4983135;28;20078;-82
2023/05/18 13:29:27;;;;;;;5.10;1.95;;;;;;;17.84;36.94;97169.09;4909781;29;20048;-80
2023/05/18 13:31:55;;;;;;;3.70;1.90;;;;;;;17.81;37.03;97166.88;4913461;29;20453;-81
2023/05/18 13:34:23;;;;;;;3.40;1.85;;;;;;;17.79;37.41;97163.63;4911652;29;20139;-80
2023/05/18 13:36:52;;;;;;;6.28;2.30;;;;;;;17.80;36.56;97176.63;4914978;29;20053;-81
2023/05/18 13:39:20;;;;;;;6.70;1.70;;;;;;;17.78;36.74;97169.94;4919956;29;20048;-80
2023/05/18 13:41:48;;;;;;;5.28;2.10;;;;;;;17.76;36.96;97167.50;4922130;29;20517;-80
2023/05/18 13:44:17;;;;;;;3.75;2.08;;;;;;;17.72;36.54;97163.69;4923799;29;20048;-81
2023/05/18 13:46:45;;;;;;;4.10;1.67;;;;;;;17.68;37.10;97159.84;4916262;29;20057;-81
2023/05/18 13:49:13;;;;;;;6.25;3.00;;;;;;;17.67;36.99;97153.78;4915203;29;20072;-81
2023/05/18 13:51:41;;;;;;;5.45;2.15;;;;;;;17.66;36.60;97156.59;4911168;29;20060;-81
2023/05/18 13:54:12;;;;;;;6.80;2.05;;;;;;;17.59;36.69;97159.28;4911339;29;20052;-81
2023/05/18 13:56:39;;;;;;;4.45;2.20;;;;;;;17.53;36.97;97151.41;4913433;29;20080;-81
2023/05/18 13:59:07;;;;;;;7.03;2.15;;;;;;;17.49;36.84;97156.31;4912230;29;20053;-80
2023/05/18 14:01:35;;;;;;;7.65;1.92;;;;;;;17.48;37.17;97141.50;4912589;29;20045;-81
2023/05/18 14:04:03;;;;;;;4.72;1.90;;;;;;;17.45;37.52;97148.03;4912166;29;20124;-80